NCAR-RAP Real-Time Weather Data

Output produced by METARs form (17 December 2018  15:16 UTC)
found at http://weather.rap.ucar.edu/surface/
 
RJSR 171000Z VRB02KT 1200 R11/0375V0550N -SHRA BCFG BR FEW001 SCT005 BKN030 01/01 Q1005
RJSR 170900Z VRB01KT 4000 BCFG BR FEW005 SCT050 BKN080 02/02 Q1005
RJSR 170800Z 00000KT 8000 FEW015 SCT050 BKN070 03/03 Q1005
RJSR 170700Z VRB02KT 9999 FEW020 BKN050 03/03 Q1005
RJSR 170600Z 22006KT 9999 FEW015 SCT070 BKN090 04/03 Q1005
RJSR 170500Z VRB02KT 9999 FEW005 SCT030 BKN/// 05/05 Q1005
RJSR 170400Z 12003KT 0500 R11/0175V0750U FG FEW001 SCT003 03/03 Q1005
RJSR 170300Z 00000KT 0300 R11/0175N FG FEW001 SCT002 BKN007 02/02 Q1006
RJSR 170200Z VRB02KT 0300 R11/0225V0350N FG FEW001 SCT002 BKN007 02/02 Q1007
RJSR 170100Z VRB02KT 0300 R11/0250V0400N FG FEW001 SCT002 BKN007 01/01 Q1009
RJSR 170027Z VRB01KT 0500 R11/0225V0350N FG FEW001 SCT002 BKN008 01/01 Q1009 RMK 1ST001 4ST002 7ST008 A2981
RJSR 170000Z 00000KT 0300 R11/0150V0225N FG FEW001 SCT002 BKN006 01/01 Q1009
RJSR 162318Z VRB01KT 0300 R11/0350N FG FEW001 SCT002 BKN005 01/01 Q1009 RMK 1ST001 4ST002 7ST005 A2982
RJSR 162300Z VRB01KT 0500 R11/0300V0400N FG FEW001 SCT002 BKN007 01/01 Q1009
RJSR 161000Z VRB01KT 1200 R11/0350N -SHRA BCFG BR FEW001 BKN003 BKN/// M00/M00 Q1014
RJSR 160900Z 31002KT 8000 R11/0375N PRFG FEW001 SCT040 BKN/// 01/01 Q1014
RJSR 160800Z 09005KT 9999 FEW003 SCT030 BKN040 01/01 Q1015
RJSR 160700Z 06003KT 020V090 9999 PRFG FEW003 SCT030 BKN040 01/01 Q1016
RJSR 160600Z VRB02KT 9999 FEW003 SCT020 BKN030 01/01 Q1017
RJSR 160500Z 35002KT 9999 FEW005 BKN020 02/02 Q1017
RJSR 160400Z VRB02KT 9999 FEW003 SCT025 BKN030 02/02 Q1018
RJSR 160300Z VRB01KT 9999 FEW003 SCT050 BKN/// 02/02 Q1020
RJSR 160218Z VRB01KT 6000 PRFG FEW001 SCT030 BKN060 01/01 Q1020 RMK 1ST001 3CU030 5SC060 A3014 3000E
RJSR 160200Z VRB02KT 3000 BCFG BR FEW001 SCT030 BKN060 01/01 Q1021
RJSR 160140Z VRB02KT 2000 BCFG BR FEW001 SCT030 BKN040 01/01 Q1021 RMK 2ST001 3CU030 7CU040 A3016 5000NW-NE
RJSR 160125Z VRB02KT 2400 BCFG BR FEW001 BKN002 BKN040 01/01 Q1021 RMK 2ST001 5ST002 7CU040 A3017
RJSR 160100Z 34003KT 310V010 2400 BCFG BR FEW001 SCT030 BKN050 01/01 Q1022
RJSR 160044Z VRB01KT 2400 BCFG BR FEW001 SCT020 BKN050 01/01 Q1022 RMK 1ST001 3CU020 7CU050 A3019 9999E-S
RJSR 160026Z 11002KT 2000 R11/0700VP2000D BCFG BR FEW001 SCT020 BKN050 00/00 Q1022 RMK 1ST001 3CU020 7CU050 A3019 1000E
RJSR 160000Z VRB01KT 1400 R11/P2000N BCFG BR SCT001 BKN020 BKN050 00/00 Q1022
RJSR 152337Z VRB02KT 1000 R11/0375VP2000U BCFG BR FEW001 SCT002 BKN040 M00/M00 Q1022 RMK 2ST001 4ST002 7CU040 A3020
RJSR 151000Z 19004KT 9999 FEW015 SCT035 BKN040 M01/M01 Q1026
RJSR 150900Z VRB05KT 9999 -SHSN FEW010 SCT015 BKN040 M01/M01 Q1026
RJSR 150800Z 17004KT 9999 -SHSN FEW010 SCT015 BKN040 M01/M01 Q1026
RJSR 150700Z 19006KT 9999 -SHSN FEW005 SCT010 BKN040 M01/M01 Q1026
RJSR 150600Z 16004KT 7000 -SHSN FEW003 SCT010 BKN030 M00/M00 Q1025
RJSR 150500Z 22004KT 190V260 9999 -SHSN FEW005 SCT010 BKN040 M00/M02 Q1025
RJSR 150400Z 24005KT 8000 -SHSN FEW005 SCT010 BKN020 M00/M01 Q1025